sensor_id;sensor_type;location;lat;lon;timestamp;pressure;altitude;pressure_sealevel;temperature;humidity
39341;BME280;25059;52.132;21.062;2023-07-29T05:36:54;99801.28;;;19.76;100.00
39341;BME280;25059;52.132;21.062;2023-07-29T05:39:38;99810.06;;;19.87;100.00
39341;BME280;25059;52.132;21.062;2023-07-29T05:42:22;99794.94;;;19.97;100.00
39341;BME280;25059;52.132;21.062;2023-07-29T05:45:07;99795.50;;;20.31;100.00
39341;BME280;25059;52.132;21.062;2023-07-29T05:47:52;99795.38;;;20.33;100.00
39341;BME280;25059;52.132;21.062;2023-07-29T05:50:38;99805.88;;;20.55;100.00
39341;BME280;25059;52.132;21.062;2023-07-29T05:53:23;99807.72;;;19.94;100.00
39341;BME280;25059;52.132;21.062;2023-07-29T05:56:07;99812.66;;;19.98;100.00
39341;BME280;25059;52.132;21.062;2023-07-29T05:58:52;99812.19;;;20.24;100.00
39341;BME280;25059;52.132;21.062;2023-07-29T06:01:36;99818.41;;;20.64;100.00
39341;BME280;25059;52.132;21.062;2023-07-29T06:04:22;99816.78;;;21.02;100.00
39341;BME280;25059;52.132;21.062;2023-07-29T06:07:06;99826.06;;;20.98;100.00
39341;BME280;25059;52.132;21.062;2023-07-29T06:09:51;99817.03;;;20.89;100.00
39341;BME280;25059;52.132;21.062;2023-07-29T06:12:37;99825.06;;;20.99;100.00
39341;BME280;25059;52.132;21.062;2023-07-29T06:15:22;99835.22;;;21.05;100.00
39341;BME280;25059;52.132;21.062;2023-07-29T06:18:06;99837.75;;;20.97;100.00
39341;BME280;25059;52.132;21.062;2023-07-29T06:20:51;99828.28;;;20.83;100.00
39341;BME280;25059;52.132;21.062;2023-07-29T06:23:36;99839.59;;;20.47;100.00
39341;BME280;25059;52.132;21.062;2023-07-29T06:26:21;99849.28;;;20.48;100.00
39341;BME280;25059;52.132;21.062;2023-07-29T06:29:05;99849.25;;;20.88;100.00
39341;BME280;25059;52.132;21.062;2023-07-29T06:31:50;99855.50;;;21.17;100.00
39341;BME280;25059;52.132;21.062;2023-07-29T06:34:35;99854.53;;;21.38;100.00
39341;BME280;25059;52.132;21.062;2023-07-29T06:37:20;99852.44;;;21.51;100.00
39341;BME280;25059;52.132;21.062;2023-07-29T06:40:05;99854.25;;;21.70;100.00
39341;BME280;25059;52.132;21.062;2023-07-29T06:42:50;99861.56;;;21.77;100.00
39341;BME280;25059;52.132;21.062;2023-07-29T06:45:34;99864.34;;;21.95;100.00
39341;BME280;25059;52.132;21.062;2023-07-29T06:48:19;99858.28;;;21.93;100.00
39341;BME280;25059;52.132;21.062;2023-07-29T06:51:04;99853.75;;;22.13;100.00
39341;BME280;25059;52.132;21.062;2023-07-29T06:53:49;99854.75;;;22.49;100.00
39341;BME280;25059;52.132;21.062;2023-07-29T06:56:33;99859.97;;;22.50;100.00
39341;BME280;25059;52.132;21.062;2023-07-29T06:59:18;99860.47;;;22.64;100.00
39341;BME280;25059;52.132;21.062;2023-07-29T07:02:02;99854.81;;;22.30;100.00
39341;BME280;25059;52.132;21.062;2023-07-29T07:04:47;99859.19;;;21.55;100.00
39341;BME280;25059;52.132;21.062;2023-07-29T07:07:32;99858.34;;;21.35;100.00
39341;BME280;25059;52.132;21.062;2023-07-29T07:10:16;99863.56;;;21.46;100.00
39341;BME280;25059;52.132;21.062;2023-07-29T07:13:01;99864.25;;;21.48;100.00
39341;BME280;25059;52.132;21.062;2023-07-29T07:15:46;99855.66;;;21.64;100.00
39341;BME280;25059;52.132;21.062;2023-07-29T07:18:31;99860.00;;;21.84;100.00
39341;BME280;25059;52.132;21.062;2023-07-29T07:21:15;99839.97;;;22.45;100.00
39341;BME280;25059;52.132;21.062;2023-07-29T07:24:00;99859.19;;;23.13;100.00
39341;BME280;25059;52.132;21.062;2023-07-29T07:26:44;99839.66;;;23.38;100.00
39341;BME280;25059;52.132;21.062;2023-07-29T07:29:29;99854.56;;;23.94;100.00
39341;BME280;25059;52.132;21.062;2023-07-29T07:32:14;99839.91;;;24.40;100.00
39341;BME280;25059;52.132;21.062;2023-07-29T07:34:59;99839.06;;;24.40;100.00
39341;BME280;25059;52.132;21.062;2023-07-29T07:37:44;99837.28;;;23.97;100.00
39341;BME280;25059;52.132;21.062;2023-07-29T07:40:28;99839.41;;;22.69;100.00
39341;BME280;25059;52.132;21.062;2023-07-29T07:43:13;99847.78;;;21.43;100.00
39341;BME280;25059;52.132;21.062;2023-07-29T07:45:59;99854.59;;;20.88;100.00
39341;BME280;25059;52.132;21.062;2023-07-29T07:48:43;99847.75;;;20.55;100.00
39341;BME280;25059;52.132;21.062;2023-07-29T07:51:28;99855.66;;;20.36;100.00
39341;BME280;25059;52.132;21.062;2023-07-29T07:54:12;99861.19;;;20.13;100.00
39341;BME280;25059;52.132;21.062;2023-07-29T07:56:57;99859.53;;;20.43;100.00
39341;BME280;25059;52.132;21.062;2023-07-29T07:59:42;99850.19;;;20.68;100.00
39341;BME280;25059;52.132;21.062;2023-07-29T08:02:26;99852.22;;;21.04;100.00
39341;BME280;25059;52.132;21.062;2023-07-29T08:05:11;99848.50;;;21.36;100.00
39341;BME280;25059;52.132;21.062;2023-07-29T08:07:56;99855.09;;;21.60;100.00
39341;BME280;25059;52.132;21.062;2023-07-29T08:10:40;99849.31;;;21.55;100.00
39341;BME280;25059;52.132;21.062;2023-07-29T08:13:25;99849.56;;;21.91;100.00
39341;BME280;25059;52.132;21.062;2023-07-29T08:16:09;99844.66;;;22.33;100.00
39341;BME280;25059;52.132;21.062;2023-07-29T08:18:54;99851.31;;;22.29;100.00
39341;BME280;25059;52.132;21.062;2023-07-29T08:21:39;99848.03;;;22.35;100.00
39341;BME280;25059;52.132;21.062;2023-07-29T08:24:24;99844.97;;;22.58;100.00
39341;BME280;25059;52.132;21.062;2023-07-29T08:27:08;99841.59;;;22.55;100.00
39341;BME280;25059;52.132;21.062;2023-07-29T08:29:53;99837.94;;;22.19;100.00
39341;BME280;25059;52.132;21.062;2023-07-29T08:32:38;99836.78;;;21.56;100.00
39341;BME280;25059;52.132;21.062;2023-07-29T08:35:23;99829.63;;;21.56;100.00
39341;BME280;25059;52.132;21.062;2023-07-29T08:38:07;99834.09;;;21.66;100.00
39341;BME280;25059;52.132;21.062;2023-07-29T08:46:49;99827.38;;;23.00;100.00
39341;BME280;25059;52.132;21.062;2023-07-29T08:49:36;99821.31;;;22.80;100.00
39341;BME280;25059;52.132;21.062;2023-07-29T08:52:21;99813.38;;;22.79;100.00
39341;BME280;25059;52.132;21.062;2023-07-29T08:55:07;99822.78;;;22.93;100.00
39341;BME280;25059;52.132;21.062;2023-07-29T08:57:52;99819.44;;;23.26;100.00
39341;BME280;25059;52.132;21.062;2023-07-29T09:00:37;99815.66;;;23.55;100.00
39341;BME280;25059;52.132;21.062;2023-07-29T09:03:21;99810.84;;;23.40;100.00
39341;BME280;25059;52.132;21.062;2023-07-29T09:06:06;99810.91;;;23.48;100.00
39341;BME280;25059;52.132;21.062;2023-07-29T09:08:53;99816.66;;;23.00;100.00
39341;BME280;25059;52.132;21.062;2023-07-29T09:11:39;99814.44;;;23.13;100.00
39341;BME280;25059;52.132;21.062;2023-07-29T09:14:24;99812.38;;;23.25;100.00
39341;BME280;25059;52.132;21.062;2023-07-29T09:17:09;99810.78;;;23.14;100.00
39341;BME280;25059;52.132;21.062;2023-07-29T09:19:53;99818.56;;;23.43;100.00
39341;BME280;25059;52.132;21.062;2023-07-29T09:22:38;99812.38;;;23.07;100.00
39341;BME280;25059;52.132;21.062;2023-07-29T09:25:24;99808.78;;;23.16;100.00
39341;BME280;25059;52.132;21.062;2023-07-29T09:28:11;99810.22;;;23.64;100.00
39341;BME280;25059;52.132;21.062;2023-07-29T09:30:56;99810.78;;;24.02;100.00
39341;BME280;25059;52.132;21.062;2023-07-29T09:33:43;99801.09;;;24.09;100.00
39341;BME280;25059;52.132;21.062;2023-07-29T09:36:30;99801.44;;;23.80;100.00
39341;BME280;25059;52.132;21.062;2023-07-29T09:39:15;99803.31;;;23.88;100.00
39341;BME280;25059;52.132;21.062;2023-07-29T09:42:00;99801.63;;;23.61;100.00
39341;BME280;25059;52.132;21.062;2023-07-29T09:44:44;99801.00;;;23.67;100.00
39341;BME280;25059;52.132;21.062;2023-07-29T09:47:29;99795.75;;;23.83;100.00
39341;BME280;25059;52.132;21.062;2023-07-29T09:53:50;99788.00;;;24.40;100.00
39341;BME280;25059;52.132;21.062;2023-07-29T09:56:39;99787.91;;;24.58;100.00
39341;BME280;25059;52.132;21.062;2023-07-29T09:59:26;99777.81;;;24.52;100.00
39341;BME280;25059;52.132;21.062;2023-07-29T10:02:16;99781.66;;;24.49;100.00
39341;BME280;25059;52.132;21.062;2023-07-29T10:05:02;99777.72;;;24.86;100.00
39341;BME280;25059;52.132;21.062;2023-07-29T10:07:48;99772.56;;;25.08;100.00
39341;BME280;25059;52.132;21.062;2023-07-29T10:10:33;99765.50;;;25.72;100.00
39341;BME280;25059;52.132;21.062;2023-07-29T10:13:18;99766.34;;;26.36;100.00
39341;BME280;25059;52.132;21.062;2023-07-29T10:16:03;99767.25;;;26.52;100.00
39341;BME280;25059;52.132;21.062;2023-07-29T10:18:50;99770.06;;;26.66;100.00
39341;BME280;25059;52.132;21.062;2023-07-29T10:21:38;99773.72;;;27.05;100.00
39341;BME280;25059;52.132;21.062;2023-07-29T10:24:24;99776.47;;;27.19;100.00
39341;BME280;25059;52.132;21.062;2023-07-29T10:27:15;99768.59;;;28.58;100.00
39341;BME280;25059;52.132;21.062;2023-07-29T10:30:02;99769.47;;;29.94;100.00
39341;BME280;25059;52.132;21.062;2023-07-29T10:32:49;99783.00;;;31.50;89.57
39341;BME280;25059;52.132;21.062;2023-07-29T10:35:34;99771.38;;;33.48;92.23
39341;BME280;25059;52.132;21.062;2023-07-29T10:38:21;99762.97;;;35.14;75.90
39341;BME280;25059;52.132;21.062;2023-07-29T10:41:07;99764.03;;;37.10;74.07
39341;BME280;25059;52.132;21.062;2023-07-29T10:43:51;99766.75;;;37.56;67.60
39341;BME280;25059;52.132;21.062;2023-07-29T10:46:36;99763.53;;;36.97;54.87
39341;BME280;25059;52.132;21.062;2023-07-29T10:49:23;99755.31;;;37.97;54.82
39341;BME280;25059;52.132;21.062;2023-07-29T10:52:08;99752.44;;;39.60;53.52
39341;BME280;25059;52.132;21.062;2023-07-29T10:54:52;99760.81;;;39.76;65.03
39341;BME280;25059;52.132;21.062;2023-07-29T10:57:38;99751.09;;;39.63;46.51
39341;BME280;25059;52.132;21.062;2023-07-29T11:00:30;99751.81;;;39.16;53.87
39341;BME280;25059;52.132;21.062;2023-07-29T11:03:15;99751.38;;;39.29;53.87
39341;BME280;25059;52.132;21.062;2023-07-29T11:06:04;99750.63;;;39.07;47.63
39341;BME280;25059;52.132;21.062;2023-07-29T11:08:49;99748.81;;;39.92;46.88
39341;BME280;25059;52.132;21.062;2023-07-29T11:11:34;99749.50;;;40.87;53.29
39341;BME280;25059;52.132;21.062;2023-07-29T11:14:19;99739.19;;;42.19;51.58
39341;BME280;25059;52.132;21.062;2023-07-29T11:17:04;99736.22;;;43.09;50.19
39341;BME280;25059;52.132;21.062;2023-07-29T11:19:50;99731.16;;;43.16;46.68
39341;BME280;25059;52.132;21.062;2023-07-29T11:22:35;99734.75;;;42.78;47.86
39341;BME280;25059;52.132;21.062;2023-07-29T11:25:21;99744.81;;;39.35;48.45
39341;BME280;25059;52.132;21.062;2023-07-29T11:28:06;99739.91;;;39.80;39.79
39341;BME280;25059;52.132;21.062;2023-07-29T11:30:51;99733.56;;;40.26;54.26
39341;BME280;25059;52.132;21.062;2023-07-29T11:33:39;99726.91;;;41.61;38.73
39341;BME280;25059;52.132;21.062;2023-07-29T11:36:23;99717.97;;;42.05;37.53
39341;BME280;25059;52.132;21.062;2023-07-29T11:39:09;99723.56;;;40.98;48.96
39341;BME280;25059;52.132;21.062;2023-07-29T11:41:54;99709.44;;;40.59;37.96
39341;BME280;25059;52.132;21.062;2023-07-29T11:44:39;99703.31;;;42.64;36.19
39341;BME280;25059;52.132;21.062;2023-07-29T11:47:24;99706.78;;;43.53;40.96
39341;BME280;25059;52.132;21.062;2023-07-29T11:50:12;99706.28;;;42.23;36.62
39341;BME280;25059;52.132;21.062;2023-07-29T11:53:00;99695.72;;;42.35;48.88
39341;BME280;25059;52.132;21.062;2023-07-29T11:55:50;99697.34;;;41.67;34.05
39341;BME280;25059;52.132;21.062;2023-07-29T11:58:37;99686.53;;;42.94;35.57
39341;BME280;25059;52.132;21.062;2023-07-29T12:01:22;99693.06;;;43.37;40.68
